Kanesville, Utah
Current Conditions -  °F | °C
As of 7:53 PM on Friday 19 Dec 2014 (Local Time) from KOGD Reporting Station
Overcast Overcast  
Wind Chill: 38°   Ceiling: 5500
Heat Index: 42°   Visibility: 10mi
Dew Point: 26°   Wind: 7mph
Humidity: 53%   Direction: 160°SSE
Pressure: 30.11"   Gusts: NA
Location:  41.1783°N, 112.12°W
Report Text: KOGD 200253Z AUTO 16006KT 10SM BKN055 OVC070 06/M03 A3011 RMK AO2 SLP198 T00561033 53008 TSNO
Loading
Personal Weather Stations






























Interactive Weather Map New forecast layout! Learn more

10-Day Weather Forecast

Advertisements
Track Severe Weather on mobile